Rouen Airport

LFOP · Seine-Maritime, Normandy, 法国

罗盘
风向 的 风向 280° Rouen Airport 4/22
风: 6 kt, 2 beaufort

3 kt

5 kt
改变
0 1.000 2.000 3.000 4.000 5.000
没有观察到明显的云
SPECI LFOE 290130Z AUTO 28006KT 9999 NSC 04/04 Q1014 BECMG 3000 BR BKN006

METAR Rouen Airport - LFOP/URO

Rouen Airport是,法国中的中型机场。 该机场有2条跑道: 4/22 和 5/23. 该领域的国际民航组织标志是LFOP 它的国际航空运输协会代码是URO.

这份报告是针对2022年11月29日 02:30, 当地时间在Évreux-Fauville (BA 105) Air Base进行的。

机场观察

风向为280°,速度为6 kt。

可见度为10 km 或者更多。

有没有观察到明显的云。 没有观察到天花板。

温度为4 °C,阵风为-1 °C。 露点为4 °C,相对湿度为100%。 海平面上的气压为1014 hPa (QNH)。

发展趋势

  • 变得

    可变方向的风很小或没有。 可见性变为3 km。 重大天气:薄雾。 碎云在600 ft的高度.

白天

今天,太阳从08:26升起,在17:00降落。 这适用于Rouen Airport,世界夏令时可能有所不同。 当地时间与世界标准时间之间的时差为+1 小时。 当前,没有夏令时有效。

公司介绍

在这个机场,你可以找到飞行俱乐部。 本场上唯一已知的公司是Aéro-Club de Rouen Normandie。

体会

到Vliegles.nl去找飞行课程,跳伞和其他飞行体验。 浏览页面,了解Rouen Airport附近所有可用的活动。 你也可以使用搜索功能来寻找你所在地附近的特定飞行课程、跳伞或其他飞行体验。

跑道

Id 标题 侧风 逆风 侧风 %
4/22 041°-221° 5 kt 3 kt 86 %
5/23 050°-230° 5 kt 4 kt 77 %

逆风成分最大的方向会被突出显示,并用于横风计算。 这并不一定意味着这个方向在使用。

乌云

- NSC 没有观察到明显的云
600 ft BKN 变得 碎云

温度 & 天气

温度 4 °C
露点 4 °C
相对湿度 100%
风寒 -1 °C
Kp-index 4 (0-9)

白天

日出
08:25 (5:23)
中午
12:43
日落
17:01

小工具

你想在你的网站上有一个关于Rouen Airport的当前航空天气(METAR)的小部件吗?

显示HTML代码

我们和第三方通过cookies跟踪您在我们网站上的互联网行为。如果你继续,我们认为你同意我们的饼干政策